Terminal Aerodrome Forecast
Issued by NWS Boston, MA

Home | Current Version | Previous Version | Text Only | Print | Product List | Glossary On
Versions: 1 2 3 4 5 6 7 8 9 10 11 12 13 14 15
000
FTUS41 KBOX 021739
TAFORH
TAF
KORH 021739Z 0218/0318 08004KT 2SM BR VCSH OVC003
     FM022000 36005KT 3SM BR OVC003
     FM030000 30004KT 2SM BR OVC008
     FM030900 VRB03KT 2SM -RA BR OVC008
     FM031300 VRB03KT 1SM BR VCSH OVC008
     FM031600 02004KT P6SM OVC010=

USA.gov is the U.S. government's official web portal to all federal, state and local government web resources and services.